createdAt,value
2017-06-22T00:00:15.139Z,63.89
2017-06-22T00:01:16.496Z,64.08
2017-06-22T00:02:17.786Z,63.41
2017-06-22T00:03:19.018Z,63.79
2017-06-22T00:04:20.267Z,64.08
2017-06-22T00:05:21.691Z,64.18
2017-06-22T00:06:22.838Z,63.89
2017-06-22T00:07:24.220Z,63.89
2017-06-22T00:08:25.459Z,64.18
2017-06-22T00:09:26.706Z,63.98
2017-06-22T00:10:28.053Z,64.47
2017-06-22T00:11:29.358Z,63.79
2017-06-22T00:12:30.606Z,64.82
2017-06-22T00:13:31.872Z,64.43
2017-06-22T00:14:33.121Z,64.73
2017-06-22T00:15:34.360Z,64.53
2017-06-22T00:16:35.609Z,64.73
2017-06-22T00:17:36.882Z,64.53
2017-06-22T00:18:38.135Z,64.73
2017-06-22T00:19:39.377Z,64.92
2017-06-22T00:20:40.622Z,64.92
2017-06-22T00:21:41.931Z,65.01
2017-06-22T00:22:43.182Z,65.2
2017-06-22T00:23:44.433Z,64.92
2017-06-22T00:24:45.770Z,65.2
2017-06-22T00:25:47.031Z,65.2
2017-06-22T00:26:48.270Z,65.5
2017-06-22T00:27:49.521Z,65.3
2017-06-22T00:28:50.766Z,65.2
2017-06-22T00:29:52.243Z,65.5
2017-06-22T00:30:53.504Z,65.5
2017-06-22T00:31:54.762Z,65.78
2017-06-22T00:32:56.000Z,65.5
2017-06-22T00:33:57.251Z,65.78
2017-06-22T00:34:58.518Z,65.78
2017-06-22T00:35:59.793Z,66.04
2017-06-22T00:37:01.174Z,66.24
2017-06-22T00:38:02.324Z,66.52
2017-06-22T00:39:03.588Z,66.62
2017-06-22T00:40:04.830Z,66.71
2017-06-22T00:41:06.130Z,66.81
2017-06-22T00:42:07.514Z,67.19
2017-06-22T00:43:08.648Z,67.1
2017-06-22T00:44:09.966Z,67.49
2017-06-22T00:45:11.202Z,67.19
2017-06-22T00:46:12.443Z,67.49
2017-06-22T00:47:13.693Z,67.77
2017-06-22T00:48:14.947Z,68.06
2017-06-22T00:49:16.279Z,68.13
2017-06-22T00:50:17.545Z,68.44
2017-06-22T00:51:18.776Z,68.51
2017-06-22T00:52:20.094Z,68.32
2017-06-22T00:53:21.346Z,68.99
2017-06-22T00:54:22.610Z,68.9
2017-06-22T00:55:23.873Z,69.09
2017-06-22T00:56:25.137Z,69.76
2017-06-22T00:57:26.383Z,69.67
2017-06-22T00:58:27.639Z,70.05
2017-06-22T00:59:28.897Z,70.53
2017-06-22T01:00:30.224Z,70.43
2017-06-22T01:01:31.462Z,71.01
2017-06-22T01:02:32.736Z,70.82
2017-06-22T01:03:34.012Z,70.98
2017-06-22T01:04:35.245Z,70.98
2017-06-22T01:05:36.485Z,70.78
2017-06-22T01:06:37.794Z,70.68
2017-06-22T01:07:39.045Z,71.08
2017-06-22T01:08:40.300Z,71.26
2017-06-22T01:09:41.552Z,71.46
2017-06-22T01:10:42.798Z,71.55
2017-06-22T01:11:44.175Z,71.65
2017-06-22T01:12:45.443Z,71.94
2017-06-22T01:13:46.691Z,72.03
2017-06-22T01:14:47.942Z,72.96
2017-06-22T01:15:49.203Z,72.58
2017-06-22T01:16:50.432Z,72.38
2017-06-22T01:17:51.709Z,72.77
2017-06-22T01:18:52.930Z,73.35
2017-06-22T01:19:54.183Z,73.35
2017-06-22T01:20:55.434Z,73.25
2017-06-22T01:21:56.683Z,73.54
2017-06-22T01:22:57.939Z,73.83
2017-06-22T01:23:59.197Z,73.83
2017-06-22T01:25:00.460Z,74.11
2017-06-22T01:26:01.776Z,74.5
2017-06-22T01:27:03.010Z,74.88
2017-06-22T01:28:04.271Z,74.79
2017-06-22T01:29:05.498Z,75.07
2017-06-22T01:30:06.743Z,75.27
2017-06-22T01:31:08.106Z,75.65
2017-06-22T01:32:09.351Z,74.98
2017-06-22T01:33:10.610Z,75.07
2017-06-22T01:34:11.884Z,75.42
2017-06-22T01:35:13.122Z,75.52
2017-06-22T01:36:14.455Z,75.71
2017-06-22T01:37:15.819Z,75.62
2017-06-22T01:38:17.085Z,76.09
2017-06-22T01:39:18.377Z,76.19
2017-06-22T01:40:19.605Z,75.71
2017-06-22T01:41:20.846Z,76.09
2017-06-22T01:42:22.151Z,76.57
2017-06-22T01:43:23.407Z,76.57
2017-06-22T01:44:24.680Z,76.57
2017-06-22T01:45:25.928Z,76.39
2017-06-22T01:46:27.250Z,76.39
2017-06-22T01:47:28.516Z,76.57
2017-06-22T01:48:29.777Z,76.77
2017-06-22T01:49:31.036Z,76.57
2017-06-22T01:50:32.281Z,76.77
2017-06-22T01:51:33.569Z,76.19
2017-06-22T01:52:34.822Z,76.77
2017-06-22T01:53:36.095Z,76.39
2017-06-22T01:54:37.328Z,76.57
2017-06-22T01:55:38.705Z,76.39
2017-06-22T01:56:39.966Z,76.96
2017-06-22T01:57:41.219Z,76.77
2017-06-22T01:58:42.455Z,76.96
2017-06-22T01:59:43.700Z,76.77
2017-06-22T02:00:44.950Z,76.39
2017-06-22T02:01:46.230Z,76.57
2017-06-22T02:02:47.636Z,76.86
2017-06-22T02:03:48.829Z,76.67
2017-06-22T02:04:50.104Z,76.96
2017-06-22T02:05:51.355Z,76.67
2017-06-22T02:06:52.764Z,76.67
2017-06-22T02:07:54.013Z,76.86
2017-06-22T02:08:55.312Z,76.86
2017-06-22T02:09:56.551Z,77.25
2017-06-22T02:10:57.819Z,77.73
2017-06-22T02:11:59.039Z,77.73
2017-06-22T02:13:00.296Z,78.3
2017-06-22T02:14:01.626Z,78.21
2017-06-22T02:15:02.950Z,77.98
2017-06-22T02:16:04.211Z,78.55
2017-06-22T02:17:05.470Z,78.36
2017-06-22T02:18:06.719Z,78.75
2017-06-22T02:19:07.980Z,78.84
2017-06-22T02:20:09.229Z,78.84
2017-06-22T02:21:10.477Z,78.84
2017-06-22T02:22:11.741Z,79.22
2017-06-22T02:23:13.012Z,78.94
2017-06-22T02:24:14.294Z,79.22
2017-06-22T02:25:15.543Z,79.22
2017-06-22T02:26:16.782Z,79.32
2017-06-22T02:27:18.055Z,79.52
2017-06-22T02:28:19.336Z,79.32
2017-06-22T02:29:20.590Z,79.42
2017-06-22T02:30:21.856Z,79.03
2017-06-22T02:31:23.090Z,79.8
2017-06-22T02:32:24.336Z,79.71
2017-06-22T02:33:25.706Z,79.71
2017-06-22T02:34:26.935Z,79.61
2017-06-22T02:35:28.194Z,79.9
2017-06-22T02:36:29.443Z,79.8
2017-06-22T02:37:30.691Z,79.71
2017-06-22T02:38:31.962Z,79.99
2017-06-22T02:39:33.211Z,79.9
2017-06-22T02:40:34.482Z,80.09
2017-06-22T02:41:35.815Z,79.8
2017-06-22T02:42:37.056Z,79.9
2017-06-22T02:43:38.303Z,80.19
2017-06-22T02:44:39.552Z,79.9
2017-06-22T02:45:41.001Z,79.9
2017-06-22T02:46:42.223Z,79.8
2017-06-22T02:47:43.459Z,80.28
2017-06-22T02:48:44.708Z,79.8
2017-06-22T02:49:46.112Z,79.9
2017-06-22T02:50:47.345Z,79.9
2017-06-22T02:51:48.690Z,79.52
2017-06-22T02:52:49.947Z,79.9
2017-06-22T02:53:51.201Z,79.71
2017-06-22T02:54:52.441Z,79.71
2017-06-22T02:55:53.683Z,79.71
2017-06-22T02:56:54.933Z,79.71
2017-06-22T02:57:56.250Z,79.99
2017-06-22T02:58:57.536Z,79.52
2017-06-22T02:59:58.790Z,79.42
2017-06-22T03:01:00.013Z,79.61
2017-06-22T03:02:01.361Z,79.13
2017-06-22T03:03:02.541Z,79.42
2017-06-22T03:04:03.890Z,79.42
2017-06-22T03:05:05.165Z,79.32
2017-06-22T03:06:06.426Z,79.03
2017-06-22T03:07:07.649Z,79.13
2017-06-22T03:08:08.900Z,79.13
2017-06-22T03:09:10.235Z,79.13
2017-06-22T03:10:11.625Z,79.61
2017-06-22T03:11:12.863Z,79.52
2017-06-22T03:12:14.114Z,79.32
2017-06-22T03:13:15.359Z,79.32
2017-06-22T03:14:16.656Z,79.22
2017-06-22T03:15:17.919Z,79.27
2017-06-22T03:16:19.156Z,79.36
2017-06-22T03:17:20.449Z,79.32
2017-06-22T03:18:21.710Z,79.46
2017-06-22T03:19:22.953Z,79.36
2017-06-22T03:20:24.218Z,79.46
2017-06-22T03:21:25.473Z,79.65
2017-06-22T03:22:26.740Z,78.88
2017-06-22T03:23:27.989Z,78.98
2017-06-22T03:24:29.283Z,78.98
2017-06-22T03:25:30.507Z,78.88
2017-06-22T03:26:31.756Z,78.3
2017-06-22T03:27:33.005Z,78.88
2017-06-22T03:28:34.366Z,78.4
2017-06-22T03:29:35.605Z,78.5
2017-06-22T03:30:36.852Z,78.21
2017-06-22T03:31:38.093Z,78.21
2017-06-22T03:32:39.367Z,77.86
2017-06-22T03:33:40.600Z,77.38
2017-06-22T03:34:41.931Z,77.76
2017-06-22T03:35:43.226Z,77.67
2017-06-22T03:36:44.459Z,77.48
2017-06-22T03:37:45.720Z,77.19
2017-06-22T03:38:46.951Z,76.52
2017-06-22T03:39:48.317Z,76.23
2017-06-22T03:40:49.607Z,76.61
2017-06-22T03:41:50.835Z,76.32
2017-06-22T03:42:52.087Z,75.94
2017-06-22T03:43:53.340Z,76.14
2017-06-22T03:44:54.591Z,76.04
2017-06-22T03:45:56.086Z,75.75
2017-06-22T03:46:57.393Z,75.4
2017-06-22T03:47:58.640Z,75.49
2017-06-22T03:48:59.894Z,75.4
2017-06-22T03:50:01.159Z,75.11
2017-06-22T03:51:02.379Z,75.02
2017-06-22T03:52:03.625Z,75.21
2017-06-22T03:53:04.905Z,75.11
2017-06-22T03:54:06.114Z,75.02
2017-06-22T03:55:07.507Z,75.05
2017-06-22T03:56:08.756Z,74.76
2017-06-22T03:57:10.242Z,74.76
2017-06-22T03:58:11.507Z,74.57
2017-06-22T03:59:12.765Z,74.57
2017-06-22T04:00:14.063Z,73.9
2017-06-22T04:01:15.311Z,73.51
2017-06-22T04:02:16.556Z,73.51
2017-06-22T04:03:17.815Z,73.71
2017-06-22T04:04:19.095Z,73.46
2017-06-22T04:05:20.360Z,72.88
2017-06-22T04:06:21.602Z,72.49
2017-06-22T04:07:22.849Z,72.11
2017-06-22T04:08:24.088Z,71.91
2017-06-22T04:09:25.340Z,71.91
2017-06-22T04:10:26.671Z,71.53
2017-06-22T04:11:27.949Z,71.62
2017-06-22T04:12:29.246Z,71.62
2017-06-22T04:13:30.484Z,71.43
2017-06-22T04:14:31.730Z,71.28
2017-06-22T04:15:32.974Z,71.47
2017-06-22T04:16:34.248Z,71.24
2017-06-22T04:17:35.508Z,70.79
2017-06-22T04:18:36.753Z,70.6
2017-06-22T04:19:38.001Z,70.79
2017-06-22T04:20:39.257Z,70.98
2017-06-22T04:21:40.507Z,70.79
2017-06-22T04:22:41.865Z,70.6
2017-06-22T04:23:43.117Z,70.79
2017-06-22T04:24:44.369Z,70.79
2017-06-22T04:25:45.618Z,70.89
2017-06-22T04:26:46.909Z,70.21
2017-06-22T04:27:48.174Z,70.35
2017-06-22T04:28:49.429Z,70.15
2017-06-22T04:29:50.656Z,69.67
2017-06-22T04:30:51.985Z,69.48
2017-06-22T04:31:53.214Z,69.77
2017-06-22T04:32:54.467Z,69.48
2017-06-22T04:33:55.739Z,69.87
2017-06-22T04:34:56.977Z,69.87
2017-06-22T04:35:58.288Z,69.67
2017-06-22T04:36:59.541Z,69.38
2017-06-22T04:38:00.794Z,69.03
2017-06-22T04:39:02.070Z,68.45
2017-06-22T04:40:03.294Z,67.88
2017-06-22T04:41:04.560Z,67.71
2017-06-22T04:42:05.813Z,66.66
2017-06-22T04:43:07.092Z,66.46
2017-06-22T04:44:08.338Z,65.82
2017-06-22T04:45:09.598Z,65.53
2017-06-22T04:46:10.862Z,65.43
2017-06-22T04:47:12.125Z,65.05
2017-06-22T04:48:13.423Z,65.43
2017-06-22T04:49:14.706Z,65.91
2017-06-22T04:50:15.953Z,65.82
2017-06-22T04:51:17.194Z,65.24
2017-06-22T04:52:18.591Z,65.43
2017-06-22T04:53:19.920Z,65.53
2017-06-22T04:54:21.167Z,64.76
2017-06-22T04:55:22.434Z,64.56
2017-06-22T04:56:23.701Z,64.89
2017-06-22T04:57:24.960Z,64.21
2017-06-22T04:58:26.222Z,63.53
2017-06-22T04:59:27.472Z,63.37
2017-06-22T05:00:28.854Z,62.44
2017-06-22T05:01:30.108Z,62.05
2017-06-22T05:02:31.369Z,59.95
2017-06-22T05:03:32.628Z,59.21
2017-06-22T05:04:33.870Z,58.53
2017-06-22T05:05:35.146Z,58.07
2017-06-22T05:06:36.381Z,57.59
2017-06-22T05:07:37.640Z,57.01
2017-06-22T05:08:38.895Z,56.72
2017-06-22T05:09:40.142Z,57.28
2017-06-22T05:10:41.401Z,57.76
2017-06-22T05:11:42.659Z,57.59
2017-06-22T05:12:43.979Z,57.88
2017-06-22T05:13:45.378Z,57.66
2017-06-22T05:14:46.536Z,57.86
2017-06-22T05:15:47.786Z,58.04
2017-06-22T05:16:49.049Z,58.04
2017-06-22T05:17:50.296Z,58.53
2017-06-22T05:18:51.551Z,58.44
2017-06-22T05:19:52.846Z,57.95
2017-06-22T05:20:54.181Z,57.86
2017-06-22T05:21:55.438Z,57.79
2017-06-22T05:22:56.727Z,57.2
2017-06-22T05:23:58.005Z,56.56
2017-06-22T05:24:59.276Z,55.04
2017-06-22T05:26:00.503Z,53.61
2017-06-22T05:27:01.775Z,52.95
2017-06-22T05:28:03.021Z,52.4
2017-06-22T05:29:04.313Z,50.87
2017-06-22T05:30:05.571Z,50.21
2017-06-22T05:31:06.922Z,48.22
2017-06-22T05:32:08.171Z,46.91
2017-06-22T05:33:09.527Z,45.57
2017-06-22T05:34:10.775Z,44.03
2017-06-22T05:35:12.052Z,42.69
2017-06-22T05:36:13.283Z,42.44
2017-06-22T05:37:14.637Z,41.19
2017-06-22T05:38:15.887Z,39.57
2017-06-22T05:39:17.133Z,38.02
2017-06-22T05:40:18.389Z,37.04
2017-06-22T05:41:19.636Z,36.77
2017-06-22T05:42:20.976Z,35.69
2017-06-22T05:43:22.236Z,35.3
2017-06-22T05:44:23.489Z,35.61
2017-06-22T05:45:24.744Z,35.14
2017-06-22T05:46:26.003Z,34.45
2017-06-22T05:47:27.275Z,34.65
2017-06-22T05:48:28.519Z,34.65
2017-06-22T05:49:29.848Z,33.89
2017-06-22T05:50:31.107Z,33.7
2017-06-22T05:51:32.423Z,33.04
2017-06-22T05:52:33.675Z,32.17
2017-06-22T05:53:34.926Z,30.82
2017-06-22T05:54:36.183Z,30.45
2017-06-22T05:55:37.442Z,30.05
2017-06-22T05:56:38.691Z,29.57
2017-06-22T05:57:39.949Z,29.96
2017-06-22T05:58:41.206Z,29.49
2017-06-22T05:59:42.573Z,29.21
2017-06-22T06:00:43.896Z,27.85
2017-06-22T06:01:45.086Z,27.57
2017-06-22T06:02:46.360Z,26.2
2017-06-22T06:03:47.657Z,26.1
2017-06-22T06:04:48.904Z,25.92
2017-06-22T06:05:50.176Z,25.52
2017-06-22T06:06:51.418Z,26.21
2017-06-22T06:07:52.690Z,25.24
2017-06-22T06:08:53.965Z,25.24
2017-06-22T06:09:55.222Z,24.27
2017-06-22T06:10:56.484Z,24.29
2017-06-22T06:11:57.745Z,24.09
2017-06-22T06:12:59.064Z,24.09
2017-06-22T06:14:00.353Z,23.8
2017-06-22T06:15:01.588Z,23.03
2017-06-22T06:16:02.867Z,22.74
2017-06-22T06:17:04.128Z,21.96
2017-06-22T06:18:05.375Z,21.96
2017-06-22T06:19:06.644Z,21.67
2017-06-22T06:20:07.979Z,21.58
2017-06-22T06:21:09.244Z,21.19
2017-06-22T06:22:10.495Z,21.09
2017-06-22T06:23:11.777Z,21.1
2017-06-22T06:24:13.008Z,21.39
2017-06-22T06:25:14.268Z,21.49
2017-06-22T06:26:15.537Z,21.39
2017-06-22T06:27:16.793Z,21.39
2017-06-22T06:28:18.048Z,21.6
2017-06-22T06:29:19.402Z,21.01
2017-06-22T06:30:20.781Z,20.7
2017-06-22T06:31:22.078Z,20.81
2017-06-22T06:32:23.322Z,20.23
2017-06-22T06:33:24.580Z,20.14
2017-06-22T06:34:25.828Z,19.64
2017-06-22T06:35:27.091Z,19.94
2017-06-22T06:36:28.351Z,20.54
2017-06-22T06:37:29.626Z,19.35
2017-06-22T06:38:30.954Z,19.07
2017-06-22T06:39:32.370Z,19.17
2017-06-22T06:40:33.673Z,19.18
2017-06-22T06:41:34.909Z,19.08
2017-06-22T06:42:36.156Z,18.9
2017-06-22T06:43:37.453Z,18.59
2017-06-22T06:44:38.744Z,18.3
2017-06-22T06:45:39.985Z,17.9
2017-06-22T06:46:41.244Z,18.49
2017-06-22T06:47:42.593Z,18.79
2017-06-22T06:48:43.862Z,18.49
2017-06-22T06:49:45.119Z,18.41
2017-06-22T06:50:46.508Z,17.8
2017-06-22T06:51:47.767Z,18.1
2017-06-22T06:52:49.028Z,18.5
2017-06-22T06:53:50.335Z,18.1
2017-06-22T06:54:51.592Z,18.4
2017-06-22T06:55:52.906Z,18.51
2017-06-22T06:56:54.214Z,18.11
2017-06-22T06:57:55.446Z,17.62
2017-06-22T06:58:56.712Z,17.9
2017-06-22T06:59:57.957Z,17.6
2017-06-22T07:00:59.258Z,17.82
2017-06-22T07:02:00.525Z,17.51
2017-06-22T07:03:01.820Z,17.6
2017-06-22T07:04:03.074Z,17.9
2017-06-22T07:05:04.334Z,17.9
2017-06-22T07:06:05.603Z,18.31
2017-06-22T07:07:06.863Z,17.72
2017-06-22T07:08:08.251Z,17.12
2017-06-22T07:09:09.501Z,17.32
2017-06-22T07:10:10.783Z,16.93
2017-06-22T07:11:12.053Z,16.53
2017-06-22T07:12:13.296Z,16.42
2017-06-22T07:13:14.624Z,17.02
2017-06-22T07:14:15.902Z,17.14
2017-06-22T07:15:17.212Z,16.66
2017-06-22T07:16:18.453Z,16.36
2017-06-22T07:17:19.707Z,16.06
2017-06-22T07:18:20.977Z,15.86
2017-06-22T07:19:22.271Z,16.65
2017-06-22T07:20:23.590Z,16.44
2017-06-22T07:21:24.843Z,16.74
2017-06-22T07:22:26.114Z,16.05
2017-06-22T07:23:27.363Z,16.15
2017-06-22T07:24:28.762Z,16.74
2017-06-22T07:25:30.070Z,16.15
2017-06-22T07:26:31.352Z,16.35
2017-06-22T07:27:32.637Z,16.26
2017-06-22T07:28:33.866Z,16.05
2017-06-22T07:29:35.127Z,16.25
2017-06-22T07:30:36.396Z,16.25
2017-06-22T07:31:37.676Z,15.66
2017-06-22T07:32:38.938Z,15.77
2017-06-22T07:33:40.211Z,15.78
2017-06-22T07:34:41.474Z,14.9
2017-06-22T07:35:42.796Z,15.01
2017-06-22T07:36:44.169Z,14.12
2017-06-22T07:37:45.445Z,13.42
2017-06-22T07:38:46.732Z,14.03
2017-06-22T07:39:47.953Z,13.63
2017-06-22T07:40:49.220Z,13.52
2017-06-22T07:41:50.500Z,13.91
2017-06-22T07:42:51.851Z,14.61
2017-06-22T07:43:53.132Z,15.08
2017-06-22T07:44:54.406Z,15.08
2017-06-22T07:45:55.666Z,15.27
2017-06-22T07:46:56.907Z,16.24
2017-06-22T07:47:58.186Z,16.73
2017-06-22T07:48:59.461Z,17.22
2017-06-22T07:50:00.795Z,17.4
2017-06-22T07:51:02.058Z,17.58
2017-06-22T07:52:03.366Z,18.28
2017-06-22T07:53:04.610Z,18.49
2017-06-22T07:54:05.941Z,18.59
2017-06-22T07:55:07.200Z,18.39
2017-06-22T07:56:08.554Z,17.7
2017-06-22T07:57:09.793Z,17.61
2017-06-22T07:58:11.070Z,17.04
2017-06-22T07:59:12.337Z,17.24
2017-06-22T08:00:13.604Z,17.05
2017-06-22T08:01:14.916Z,16.16
2017-06-22T08:02:16.230Z,15.97
2017-06-22T08:03:17.462Z,15.48
2017-06-22T08:04:18.725Z,14.9
2017-06-22T08:05:19.982Z,14.49
2017-06-22T08:06:21.319Z,14.59
2017-06-22T08:07:22.613Z,14.79
2017-06-22T08:08:23.890Z,14.79
2017-06-22T08:09:25.172Z,14.59
2017-06-22T08:10:26.504Z,14.29
2017-06-22T08:11:27.767Z,14.11
2017-06-22T08:12:29.039Z,14
2017-06-22T08:13:30.295Z,15.09
2017-06-22T08:14:31.834Z,15.96
2017-06-22T08:15:33.111Z,16.64
2017-06-22T08:16:34.429Z,17.4
2017-06-22T08:17:35.791Z,18.07
2017-06-22T08:18:36.998Z,19.06
2017-06-22T08:19:38.255Z,19.65
2017-06-22T08:20:39.529Z,19.06
2017-06-22T08:21:40.789Z,18.58
2017-06-22T08:22:42.071Z,17.7
2017-06-22T08:23:43.344Z,17.23
2017-06-22T08:24:44.642Z,16.26
2017-06-22T08:25:45.883Z,15.68
2017-06-22T08:26:47.139Z,14.89
2017-06-22T08:27:48.459Z,14.9
2017-06-22T08:28:49.747Z,14.62
2017-06-22T08:29:50.988Z,13.93
2017-06-22T08:30:52.244Z,13.84
2017-06-22T08:31:53.524Z,12.05
2017-06-22T08:32:54.780Z,11.77
2017-06-22T08:33:56.047Z,11.36
2017-06-22T08:34:57.349Z,11.57
2017-06-22T08:35:58.597Z,10.97
2017-06-22T08:36:59.899Z,11.08
2017-06-22T08:38:01.163Z,11.17
2017-06-22T08:39:02.397Z,11.06
2017-06-22T08:40:03.663Z,11.07
2017-06-22T08:41:04.955Z,10.96
2017-06-22T08:42:06.228Z,10.88
2017-06-22T08:43:07.503Z,10.58
2017-06-22T08:44:08.756Z,11.19
2017-06-22T08:45:10.021Z,10.17
2017-06-22T08:46:11.265Z,10.67
2017-06-22T08:47:12.525Z,11.27
2017-06-22T08:48:13.898Z,10.77
2017-06-22T08:49:15.162Z,10.78
2017-06-22T08:50:16.424Z,10.28
2017-06-22T08:51:17.691Z,10.58
2017-06-22T08:52:18.983Z,10.08
2017-06-22T08:53:20.297Z,10.4
2017-06-22T08:54:21.585Z,10.7
2017-06-22T08:55:22.837Z,9.39
2017-06-22T08:56:24.104Z,9.7
2017-06-22T08:57:25.363Z,9.5
2017-06-22T08:58:26.652Z,9.5
2017-06-22T08:59:27.912Z,9.8
2017-06-22T09:00:29.193Z,9.49
2017-06-22T09:01:30.474Z,10.09
2017-06-22T09:02:31.850Z,10.28
2017-06-22T09:03:33.135Z,10.08
2017-06-22T09:04:34.426Z,10.29
2017-06-22T09:05:35.723Z,9.8
2017-06-22T09:06:37.018Z,9.5
2017-06-22T09:07:38.279Z,9.39
2017-06-22T09:08:39.622Z,10.09
2017-06-22T09:09:40.879Z,10.29
2017-06-22T09:10:42.172Z,10.19
2017-06-22T09:11:43.419Z,10.28
2017-06-22T09:12:44.745Z,10.19
2017-06-22T09:13:46.045Z,10.19
2017-06-22T09:14:47.310Z,9.8
2017-06-22T09:15:48.651Z,9.59
2017-06-22T09:16:49.926Z,9
2017-06-22T09:17:51.209Z,8.71
2017-06-22T09:18:52.460Z,8.4
2017-06-22T09:19:53.737Z,8.41
2017-06-22T09:20:55.000Z,8.31
2017-06-22T09:21:56.284Z,8.21
2017-06-22T09:22:57.574Z,8.01
2017-06-22T09:23:58.845Z,8.61
2017-06-22T09:25:00.222Z,8.72
2017-06-22T09:26:01.479Z,8.62
2017-06-22T09:27:02.785Z,7.9
2017-06-22T09:28:04.061Z,8.11
2017-06-22T09:29:05.371Z,8.09
2017-06-22T09:30:06.635Z,8.59
2017-06-22T09:31:08.013Z,8.8
2017-06-22T09:32:09.295Z,8.89
2017-06-22T09:33:10.548Z,9.5
2017-06-22T09:34:11.809Z,8.59
2017-06-22T09:35:13.104Z,8.69
2017-06-22T09:36:14.390Z,9.19
2017-06-22T09:37:15.703Z,9.48
2017-06-22T09:38:16.958Z,9.48
2017-06-22T09:39:18.232Z,9.67
2017-06-22T09:40:19.514Z,10.07
2017-06-22T09:41:20.789Z,10.18
2017-06-22T09:42:22.082Z,9.37
2017-06-22T09:43:23.311Z,9.47
2017-06-22T09:44:24.588Z,10.06
2017-06-22T09:45:25.850Z,10.25
2017-06-22T09:46:27.145Z,10.84
2017-06-22T09:47:28.425Z,10.83
2017-06-22T09:48:29.693Z,11.13
2017-06-22T09:49:30.952Z,11.72
2017-06-22T09:50:32.223Z,11.72
2017-06-22T09:51:33.499Z,11.33
2017-06-22T09:52:34.812Z,11.03
2017-06-22T09:53:36.181Z,11.24
2017-06-22T09:54:37.466Z,10.94
2017-06-22T09:55:38.724Z,10.55
2017-06-22T09:56:40.014Z,10.36
2017-06-22T09:57:41.253Z,10.55
2017-06-22T09:58:42.642Z,10.75
2017-06-22T09:59:43.909Z,10.54
2017-06-22T10:00:45.186Z,10.84
2017-06-22T10:01:46.478Z,11.63
2017-06-22T10:02:47.741Z,11.54
2017-06-22T10:03:49.024Z,11.55
2017-06-22T10:04:50.324Z,10.96
2017-06-22T10:05:51.650Z,11.07
2017-06-22T10:06:52.890Z,10.66
2017-06-22T10:07:54.156Z,11.15
2017-06-22T10:08:55.421Z,11.55
2017-06-22T10:09:56.677Z,11.44
2017-06-22T10:10:57.998Z,11.44
2017-06-22T10:11:59.306Z,11.65
2017-06-22T10:13:00.616Z,11.54
2017-06-22T10:14:01.874Z,11.55
2017-06-22T10:15:03.122Z,11.75
2017-06-22T10:16:04.397Z,12.15
2017-06-22T10:17:05.897Z,11.35
2017-06-22T10:18:07.172Z,11.35
2017-06-22T10:19:08.445Z,11.07
2017-06-22T10:20:09.696Z,10.77
2017-06-22T10:21:11.015Z,10.47
2017-06-22T10:22:12.353Z,10.38
2017-06-22T10:23:13.622Z,10.47
2017-06-22T10:24:14.892Z,10.57
2017-06-22T10:25:16.161Z,10.77
2017-06-22T10:26:17.432Z,10.87
2017-06-22T10:27:18.794Z,11.26
2017-06-22T10:28:20.085Z,11.76
2017-06-22T10:29:21.329Z,12.05
2017-06-22T10:30:22.594Z,12.26
2017-06-22T10:31:23.861Z,12.25
2017-06-22T10:32:25.130Z,12.34
2017-06-22T10:33:26.408Z,13.52
2017-06-22T10:34:27.755Z,14.11
2017-06-22T10:35:29.036Z,14.2
2017-06-22T10:36:30.287Z,14.69
2017-06-22T10:37:31.567Z,15.08
2017-06-22T10:38:32.858Z,15.86
2017-06-22T10:39:34.190Z,16.15
2017-06-22T10:40:35.460Z,16.54
2017-06-22T10:41:36.735Z,17.13
2017-06-22T10:42:37.978Z,17.42
2017-06-22T10:43:39.257Z,17.9
2017-06-22T10:44:40.564Z,18.78
2017-06-22T10:45:41.828Z,19.27
2017-06-22T10:46:43.090Z,19.86
2017-06-22T10:47:44.340Z,20.46
2017-06-22T10:48:45.623Z,20.36
2017-06-22T10:49:46.870Z,20.95
2017-06-22T10:50:48.239Z,20.65
2017-06-22T10:51:49.448Z,20.54
2017-06-22T10:52:50.718Z,21.32
2017-06-22T10:53:51.974Z,21.81
2017-06-22T10:54:53.226Z,22.39
2017-06-22T10:55:54.506Z,22.48
2017-06-22T10:56:55.763Z,23.06
2017-06-22T10:57:57.162Z,23.16
2017-06-22T10:58:58.429Z,23.16
2017-06-22T10:59:59.749Z,23.65
2017-06-22T11:01:01.008Z,24.44
2017-06-22T11:02:02.315Z,24.63
2017-06-22T11:03:03.575Z,24.73
2017-06-22T11:04:04.853Z,25.12
2017-06-22T11:05:06.131Z,25.43
2017-06-22T11:06:07.380Z,25.03
2017-06-22T11:07:08.680Z,24.63
2017-06-22T11:08:09.901Z,24.63
2017-06-22T11:09:11.174Z,24.93
2017-06-22T11:10:12.563Z,24.82
2017-06-22T11:11:13.803Z,24.92
2017-06-22T11:12:15.069Z,25.5
2017-06-22T11:13:16.326Z,26.19
2017-06-22T11:14:17.592Z,25.79
2017-06-22T11:15:18.846Z,25.79
2017-06-22T11:16:20.156Z,26.68
2017-06-22T11:17:21.469Z,26.78
2017-06-22T11:18:22.756Z,25.68
2017-06-22T11:19:24.023Z,25.99
2017-06-22T11:20:25.333Z,25.9
2017-06-22T11:21:26.623Z,26.19
2017-06-22T11:22:27.892Z,26.67
2017-06-22T11:23:29.148Z,26.67
2017-06-22T11:24:30.410Z,26.38
2017-06-22T11:25:31.678Z,26.48
2017-06-22T11:26:32.957Z,26.39
2017-06-22T11:27:34.316Z,26.08
2017-06-22T11:28:35.617Z,26.09
2017-06-22T11:29:36.884Z,25.99
2017-06-22T11:30:38.142Z,26.09
2017-06-22T11:31:39.398Z,25.68
2017-06-22T11:32:40.663Z,26.77
2017-06-22T11:33:42.030Z,25.19
2017-06-22T11:34:43.343Z,26.09
2017-06-22T11:35:44.564Z,25.6
2017-06-22T11:36:45.824Z,25.68
2017-06-22T11:37:47.173Z,25.68
2017-06-22T11:38:48.479Z,26.48
2017-06-22T11:39:49.752Z,25.67
2017-06-22T11:40:51.019Z,25.77
2017-06-22T11:41:52.283Z,26.26
2017-06-22T11:42:53.563Z,26.28
2017-06-22T11:43:54.839Z,26.36
2017-06-22T11:44:56.226Z,25.97
2017-06-22T11:45:57.475Z,25.28
2017-06-22T11:46:58.722Z,26.46
2017-06-22T11:47:59.981Z,26.46
2017-06-22T11:49:01.235Z,26.46
2017-06-22T11:50:02.488Z,26.15
2017-06-22T11:51:03.747Z,26.55
2017-06-22T11:52:05.007Z,26.55
2017-06-22T11:53:06.269Z,26.25
2017-06-22T11:54:07.532Z,26.25
2017-06-22T11:55:08.853Z,26.25
2017-06-22T11:56:10.113Z,26.36
2017-06-22T11:57:11.379Z,26.25
2017-06-22T11:58:12.657Z,26.66
2017-06-22T11:59:13.964Z,26.55
2017-06-22T12:00:15.267Z,26.65
2017-06-22T12:01:16.541Z,26.94
2017-06-22T12:02:17.787Z,26.64
2017-06-22T12:03:19.165Z,25.66
2017-06-22T12:04:20.492Z,26.45
2017-06-22T12:05:21.763Z,25.84
2017-06-22T12:06:23.041Z,25.45
2017-06-22T12:07:24.386Z,26.24
2017-06-22T12:08:25.656Z,26.14
2017-06-22T12:09:26.903Z,25.95
2017-06-22T12:10:28.163Z,26.64
2017-06-22T12:11:29.424Z,26.24
2017-06-22T12:12:30.669Z,26.62
2017-06-22T12:13:31.928Z,26.72
2017-06-22T12:14:33.187Z,26.21
2017-06-22T12:15:34.458Z,27.01
2017-06-22T12:16:35.714Z,26.62
2017-06-22T12:17:36.966Z,27
2017-06-22T12:18:38.214Z,26.9
2017-06-22T12:19:39.473Z,26.53
2017-06-22T12:20:40.815Z,25.62
2017-06-22T12:21:42.319Z,26.41
2017-06-22T12:22:43.595Z,26.71
2017-06-22T12:23:44.860Z,26.5
2017-06-22T12:24:46.124Z,26.98
2017-06-22T12:25:47.432Z,27.19
2017-06-22T12:26:48.771Z,27.08
2017-06-22T12:27:50.029Z,27.47
2017-06-22T12:28:51.299Z,27.67
2017-06-22T12:29:52.558Z,27.57
2017-06-22T12:30:53.825Z,27.47
2017-06-22T12:31:55.098Z,27.27
2017-06-22T12:32:56.463Z,27.19
2017-06-22T12:33:57.766Z,26.59
2017-06-22T12:34:59.057Z,27.97
2017-06-22T12:36:00.322Z,27.28
2017-06-22T12:37:01.581Z,26.1
2017-06-22T12:38:02.835Z,26.89
2017-06-22T12:39:04.139Z,26.59
2017-06-22T12:40:05.394Z,26.48
2017-06-22T12:41:06.674Z,26.58
2017-06-22T12:42:07.907Z,26.88
2017-06-22T12:43:09.216Z,27.17
2017-06-22T12:44:10.442Z,26.77
2017-06-22T12:45:11.739Z,26.09
2017-06-22T12:46:12.987Z,26.47
2017-06-22T12:47:14.244Z,27.06
2017-06-22T12:48:15.521Z,26.97
2017-06-22T12:49:16.826Z,26.57
2017-06-22T12:50:18.109Z,26.67
2017-06-22T12:51:19.362Z,27.45
2017-06-22T12:52:20.621Z,27.85
2017-06-22T12:53:21.875Z,27.08
2017-06-22T12:54:23.139Z,26.98
2017-06-22T12:55:24.438Z,26.29
2017-06-22T12:56:25.694Z,27.08
2017-06-22T12:57:26.964Z,26.98
2017-06-22T12:58:28.230Z,27.86
2017-06-22T12:59:29.484Z,26.48
2017-06-22T13:00:30.737Z,26.58
2017-06-22T13:01:32.009Z,25.31
2017-06-22T13:02:33.299Z,26.58
2017-06-22T13:03:34.586Z,26.09
2017-06-22T13:04:35.956Z,25.39
2017-06-22T13:05:37.204Z,26.39
2017-06-22T13:06:38.465Z,26.47
2017-06-22T13:07:39.732Z,26.09
2017-06-22T13:08:40.983Z,25.31
2017-06-22T13:09:42.270Z,26.08
2017-06-22T13:10:43.524Z,26.48
2017-06-22T13:11:44.788Z,26.28
2017-06-22T13:12:46.039Z,26.08